Time;durP1;ratioP1;P1;durP2;ratioP2;P2;SDS_P1;SDS_P2;PMS_P1;PMS_P2;Temp;Humidity;BMP_temperature;BMP_pressure;BME280_temperature;BME280_humidity;BME280_pressure;Samples;Min_cycle;Max_cycle;Signal;HPM_P1;HPM_P2
2022/01/06 00:00:53;;;;;;;24.52;2.83;;;;;;;;;;4889843;28;106609;-65
2022/01/06 00:03:23;;;;;;;16.00;2.35;;;;;;;;;;4889653;28;106139;-67
2022/01/06 00:05:51;;;;;;;19.77;2.90;;;;;;;;;;4887031;28;106302;-65
2022/01/06 00:08:17;;;;;;;20.35;2.65;;;;;;;;;;4887547;28;108044;-65
2022/01/06 00:10:47;;;;;;;23.83;3.30;;;;;;;;;;4890213;28;106014;-66
2022/01/06 00:13:16;;;;;;;;;;;;;;;;;;4890130;28;106250;-66
2022/01/06 00:18:42;;;;;;;18.65;2.40;;;;;;;;;;4890704;28;105889;-66
2022/01/06 00:23:53;;;;;;;21.08;2.58;;;;;;;;;;4889169;28;106693;-66
2022/01/06 00:26:19;;;;;;;19.45;2.45;;;;;;;;;;4890483;28;106737;-66
2022/01/06 00:28:46;;;;;;;24.90;3.08;;;;;;;;;;4889642;28;106566;-66
2022/01/06 00:31:12;;;;;;;16.73;2.40;;;;;;;;;;4890211;28;106617;-66
2022/01/06 00:33:39;;;;;;;17.25;2.72;;;;;;;;;;4885374;28;106037;-67
2022/01/06 00:36:05;;;;;;;16.45;2.30;;;;;;;;;;4889908;28;107941;-66
2022/01/06 00:38:31;;;;;;;21.80;2.70;;;;;;;;;;4883444;28;106528;-66
2022/01/06 00:40:58;;;;;;;16.52;2.03;;;;;;;;;;4890944;28;106717;-67
2022/01/06 00:43:25;;;;;;;14.23;1.80;;;;;;;;;;4892678;28;107224;-66
2022/01/06 00:45:51;;;;;;;17.00;2.53;;;;;;;;;;4889283;28;106372;-66
2022/01/06 00:48:18;;;;;;;16.92;1.98;;;;;;;;;;4889434;28;107694;-66
2022/01/06 00:50:45;;;;;;;18.70;2.95;;;;;;;;;;4878813;28;107833;-66
2022/01/06 00:53:11;;;;;;;24.98;3.88;;;;;;;;;;4888229;28;106966;-66
2022/01/06 00:55:38;;;;;;;15.40;1.77;;;;;;;;;;4886337;28;109028;-67
2022/01/06 00:58:04;;;;;;;20.67;2.83;;;;;;;;;;4871054;28;106157;-66
2022/01/06 01:00:39;;;;;;;19.23;1.98;;;;;;;;;;4888690;28;107364;-66
2022/01/06 01:03:06;;;;;;;21.67;2.40;;;;;;;;;;4889703;28;107382;-66
2022/01/06 01:05:33;;;;;;;17.88;1.90;;;;;;;;;;4893080;28;106298;-66
2022/01/06 01:07:59;;;;;;;14.00;2.05;;;;;;;;;;4888039;28;108077;-66
2022/01/06 01:10:26;;;;;;;17.33;2.08;;;;;;;;;;4884406;28;106202;-66
2022/01/06 01:12:52;;;;;;;21.88;2.55;;;;;;;;;;4888707;28;107160;-66
2022/01/06 01:15:20;;;;;;;16.98;2.28;;;;;;;;;;4888913;28;108660;-66
2022/01/06 01:17:48;;;;;;;16.67;2.13;;;;;;;;;;4890020;28;106080;-66
2022/01/06 01:20:15;;;;;;;21.95;2.38;;;;;;;;;;4893194;28;107397;-67
2022/01/06 01:22:42;;;;;;;11.27;2.22;;;;;;;;;;4885611;28;107401;-66
2022/01/06 01:25:09;;;;;;;17.33;2.13;;;;;;;;;;4896384;28;106609;-67
2022/01/06 01:27:39;;;;;;;12.55;1.63;;;;;;;;;;4892644;28;106888;-66
2022/01/06 01:30:11;;;;;;;15.65;2.58;;;;;;;;;;4892757;28;106178;-66
2022/01/06 01:32:39;;;;;;;17.42;2.15;;;;;;;;;;4891910;28;107101;-67
2022/01/06 01:35:08;;;;;;;15.45;2.20;;;;;;;;;;4889558;28;106832;-66
2022/01/06 01:37:35;;;;;;;18.42;3.03;;;;;;;;;;4887987;28;106374;-66
2022/01/06 01:40:03;;;;;;;18.40;2.30;;;;;;;;;;4891940;28;106487;-66
2022/01/06 01:42:29;;;;;;;9.35;2.17;;;;;;;;;;4889935;28;109745;-66
2022/01/06 01:44:56;;;;;;;24.33;2.42;;;;;;;;;;4892592;28;106494;-66
2022/01/06 01:47:39;;;;;;;14.63;2.08;;;;;;;;;;4886897;28;107010;-66
2022/01/06 01:50:15;;;;;;;18.85;2.15;;;;;;;;;;4889002;28;106193;-66
2022/01/06 01:52:42;;;;;;;15.05;1.73;;;;;;;;;;4892738;28;107039;-66
2022/01/06 01:55:09;;;;;;;15.63;1.75;;;;;;;;;;4890353;28;108609;-66
2022/01/06 01:57:36;;;;;;;14.63;1.83;;;;;;;;;;4892668;28;106710;-66
2022/01/06 02:00:07;;;;;;;11.75;1.88;;;;;;;;;;4887171;28;108370;-66
2022/01/06 02:02:37;;;;;;;20.58;1.75;;;;;;;;;;4883117;28;106482;-67
2022/01/06 02:05:04;;;;;;;13.73;1.50;;;;;;;;;;4892253;28;107099;-66
2022/01/06 02:07:32;;;;;;;11.52;1.98;;;;;;;;;;4890611;28;106452;-66
2022/01/06 02:09:58;;;;;;;15.82;2.38;;;;;;;;;;4892969;28;107458;-66
2022/01/06 02:12:29;;;;;;;14.93;2.10;;;;;;;;;;4888895;28;107291;-67
2022/01/06 02:14:56;;;;;;;11.88;3.17;;;;;;;;;;4891201;28;106419;-66
2022/01/06 02:17:22;;;;;;;13.82;1.70;;;;;;;;;;4888378;28;107968;-66
2022/01/06 02:19:53;;;;;;;12.23;1.85;;;;;;;;;;4892248;28;108299;-66
2022/01/06 02:22:20;;;;;;;12.52;1.77;;;;;;;;;;4890021;28;107409;-66
2022/01/06 02:24:46;;;;;;;14.30;1.90;;;;;;;;;;4889938;28;106443;-66
2022/01/06 02:27:12;;;;;;;17.60;2.15;;;;;;;;;;4892069;28;106623;-66
2022/01/06 02:29:39;;;;;;;12.18;1.58;;;;;;;;;;4888270;28;107762;-66
2022/01/06 02:32:07;;;;;;;11.90;1.55;;;;;;;;;;4895507;28;105894;-66
2022/01/06 02:34:33;;;;;;;9.68;1.65;;;;;;;;;;4888108;28;107572;-66
2022/01/06 02:37:00;;;;;;;10.77;1.83;;;;;;;;;;4890229;28;105946;-65
2022/01/06 02:39:27;;;;;;;18.70;2.00;;;;;;;;;;4884393;28;105694;-66
2022/01/06 02:41:53;;;;;;;14.00;2.13;;;;;;;;;;4891481;28;107028;-66
2022/01/06 02:44:21;;;;;;;23.58;2.28;;;;;;;;;;4891074;28;106711;-66
2022/01/06 02:46:47;;;;;;;14.07;1.90;;;;;;;;;;4885503;28;107154;-66
2022/01/06 02:49:14;;;;;;;17.88;2.60;;;;;;;;;;4890271;28;107705;-67
2022/01/06 02:51:41;;;;;;;11.52;1.60;;;;;;;;;;4890632;28;105822;-66
2022/01/06 02:54:07;;;;;;;11.60;1.85;;;;;;;;;;4894472;28;106687;-67
2022/01/06 02:56:34;;;;;;;11.95;1.70;;;;;;;;;;4878459;28;106181;-66
2022/01/06 02:59:00;;;;;;;16.25;2.70;;;;;;;;;;4890576;28;107069;-67
2022/01/06 03:01:26;;;;;;;14.48;1.60;;;;;;;;;;4888604;28;107349;-66
2022/01/06 03:03:53;;;;;;;18.92;2.20;;;;;;;;;;4890329;28;105940;-66
2022/01/06 03:06:20;;;;;;;15.98;2.38;;;;;;;;;;4887910;28;109520;-66
2022/01/06 03:08:46;;;;;;;14.57;1.70;;;;;;;;;;4890585;28;107715;-67
2022/01/06 03:11:15;;;;;;;16.55;2.13;;;;;;;;;;4890631;28;105607;-67
2022/01/06 03:13:42;;;;;;;10.85;1.42;;;;;;;;;;4889334;28;106065;-66
2022/01/06 03:16:08;;;;;;;22.98;2.50;;;;;;;;;;4892031;28;106951;-68
2022/01/06 03:18:34;;;;;;;18.80;1.90;;;;;;;;;;4890211;28;106770;-66
2022/01/06 03:21:01;;;;;;;15.13;1.75;;;;;;;;;;4890364;28;107905;-66
2022/01/06 03:23:27;;;;;;;11.65;1.50;;;;;;;;;;4872539;28;106814;-66
2022/01/06 03:25:54;;;;;;;13.95;1.48;;;;;;;;;;4877617;28;108019;-66
2022/01/06 03:28:20;;;;;;;13.07;2.20;;;;;;;;;;4886483;28;107654;-66
2022/01/06 03:30:46;;;;;;;8.35;1.25;;;;;;;;;;4883371;28;106342;-68
2022/01/06 03:33:13;;;;;;;11.20;1.60;;;;;;;;;;4889456;28;107044;-68
2022/01/06 03:35:39;;;;;;;8.85;1.35;;;;;;;;;;4891542;28;106210;-67
2022/01/06 03:38:06;;;;;;;15.20;1.30;;;;;;;;;;4890012;28;106684;-67
2022/01/06 03:40:32;;;;;;;19.92;1.70;;;;;;;;;;4889271;28;107105;-67
2022/01/06 03:42:58;;;;;;;10.07;1.33;;;;;;;;;;4891793;28;105964;-67
2022/01/06 03:45:25;;;;;;;21.42;2.17;;;;;;;;;;4889613;28;105818;-68
2022/01/06 03:47:51;;;;;;;52.90;2.78;;;;;;;;;;4886619;28;106581;-67
2022/01/06 03:50:18;;;;;;;15.45;2.03;;;;;;;;;;4887948;28;106565;-67
2022/01/06 03:52:44;;;;;;;19.80;2.35;;;;;;;;;;4887274;28;106933;-66
2022/01/06 03:55:13;;;;;;;15.15;1.48;;;;;;;;;;4879529;28;106304;-66
2022/01/06 03:57:40;;;;;;;13.02;2.03;;;;;;;;;;4890952;28;106860;-66
2022/01/06 04:00:08;;;;;;;13.75;1.65;;;;;;;;;;4887989;28;110706;-66
2022/01/06 04:02:40;;;;;;;5.93;1.27;;;;;;;;;;4889479;28;106392;-66
2022/01/06 04:05:07;;;;;;;12.05;1.50;;;;;;;;;;4889425;28;106495;-67
2022/01/06 04:07:35;;;;;;;8.50;1.70;;;;;;;;;;4888518;28;106713;-66
2022/01/06 04:10:02;;;;;;;10.68;1.38;;;;;;;;;;4880423;28;106289;-66
2022/01/06 04:12:29;;;;;;;17.75;2.00;;;;;;;;;;4889506;28;106199;-66
2022/01/06 04:14:55;;;;;;;15.60;1.67;;;;;;;;;;4888950;28;107426;-66
2022/01/06 04:17:22;;;;;;;9.20;1.23;;;;;;;;;;4890523;28;107471;-66
2022/01/06 04:19:48;;;;;;;15.70;1.40;;;;;;;;;;4890161;28;106274;-66
2022/01/06 04:22:15;;;;;;;11.82;1.67;;;;;;;;;;4888932;28;105913;-66
2022/01/06 04:24:41;;;;;;;6.43;1.58;;;;;;;;;;4888815;28;106193;-66
2022/01/06 04:27:08;;;;;;;18.70;2.47;;;;;;;;;;4888904;28;107652;-66
2022/01/06 04:29:34;;;;;;;15.10;2.00;;;;;;;;;;4888067;28;105567;-66
2022/01/06 04:32:00;;;;;;;11.00;1.73;;;;;;;;;;4889997;28;106243;-66
2022/01/06 04:34:27;;;;;;;17.10;2.15;;;;;;;;;;4887149;28;107732;-66
2022/01/06 04:36:56;;;;;;;13.07;1.55;;;;;;;;;;4881962;28;106260;-67
2022/01/06 04:39:22;;;;;;;13.40;1.83;;;;;;;;;;4887334;28;106988;-66
2022/01/06 04:41:49;;;;;;;12.32;1.75;;;;;;;;;;4891640;28;109172;-66
2022/01/06 04:44:15;;;;;;;12.05;1.80;;;;;;;;;;4877337;28;107007;-67
2022/01/06 04:46:42;;;;;;;14.38;1.67;;;;;;;;;;4888908;28;106840;-67
2022/01/06 04:49:08;;;;;;;14.95;1.83;;;;;;;;;;4889779;28;105987;-67
2022/01/06 04:51:35;;;;;;;16.05;1.50;;;;;;;;;;4871488;28;108406;-65
2022/01/06 04:54:01;;;;;;;11.27;1.55;;;;;;;;;;4891728;28;107071;-67
2022/01/06 04:56:34;;;;;;;10.20;2.10;;;;;;;;;;4893034;28;106072;-67
2022/01/06 04:59:00;;;;;;;17.08;1.60;;;;;;;;;;4891144;28;107647;-67
2022/01/06 05:01:26;;;;;;;10.88;1.80;;;;;;;;;;4890689;28;106959;-68
2022/01/06 05:03:53;;;;;;;13.25;2.00;;;;;;;;;;4894815;28;106978;-68
2022/01/06 05:06:19;;;;;;;11.10;2.13;;;;;;;;;;4890845;28;108384;-67
2022/01/06 05:08:46;;;;;;;11.43;1.75;;;;;;;;;;4885525;28;106036;-67
2022/01/06 05:11:12;;;;;;;13.20;1.40;;;;;;;;;;4892517;28;107047;-67
2022/01/06 05:13:38;;;;;;;11.00;1.75;;;;;;;;;;4890976;28;107437;-68
2022/01/06 05:16:05;;;;;;;15.77;1.77;;;;;;;;;;4893062;28;107069;-67
2022/01/06 05:18:31;;;;;;;9.00;1.25;;;;;;;;;;4893319;28;106677;-67
2022/01/06 05:20:57;;;;;;;13.60;1.73;;;;;;;;;;4890806;28;107290;-67
2022/01/06 05:23:24;;;;;;;12.27;1.77;;;;;;;;;;4891443;28;105859;-68
2022/01/06 05:25:50;;;;;;;11.82;1.35;;;;;;;;;;4895412;28;106430;-68
2022/01/06 05:28:16;;;;;;;11.60;1.95;;;;;;;;;;4891709;28;105872;-67
2022/01/06 05:30:43;;;;;;;13.80;1.65;;;;;;;;;;4893626;28;106638;-67
2022/01/06 05:33:12;;;;;;;12.95;2.10;;;;;;;;;;4891470;28;109355;-67
2022/01/06 05:35:39;;;;;;;10.93;1.55;;;;;;;;;;4891049;28;106163;-67
2022/01/06 05:38:05;;;;;;;12.25;1.63;;;;;;;;;;4891713;28;106834;-67
2022/01/06 05:40:31;;;;;;;13.57;2.00;;;;;;;;;;4891693;28;106416;-67
2022/01/06 05:42:58;;;;;;;14.00;1.52;;;;;;;;;;4891431;28;106589;-67
2022/01/06 05:45:25;;;;;;;17.95;1.85;;;;;;;;;;4894936;28;106001;-67
2022/01/06 05:47:51;;;;;;;13.20;1.73;;;;;;;;;;4891590;28;106596;-67
2022/01/06 05:50:17;;;;;;;13.95;1.48;;;;;;;;;;4890651;28;107465;-68
2022/01/06 05:52:44;;;;;;;21.05;2.13;;;;;;;;;;4888711;28;107073;-67
2022/01/06 05:55:11;;;;;;;13.98;1.90;;;;;;;;;;4888499;28;107419;-67
2022/01/06 05:57:37;;;;;;;15.60;1.63;;;;;;;;;;4892656;28;107375;-68
2022/01/06 06:00:05;;;;;;;18.55;3.28;;;;;;;;;;4891878;28;107004;-66
2022/01/06 06:02:32;;;;;;;18.67;1.92;;;;;;;;;;4887429;28;106127;-67
2022/01/06 06:04:58;;;;;;;21.63;2.95;;;;;;;;;;4891911;28;107377;-67
2022/01/06 06:07:25;;;;;;;15.95;2.10;;;;;;;;;;4892365;28;108994;-66
2022/01/06 06:09:56;;;;;;;13.02;1.75;;;;;;;;;;4892417;28;106771;-66
2022/01/06 06:12:23;;;;;;;18.45;2.00;;;;;;;;;;4891300;28;106426;-65
2022/01/06 06:14:49;;;;;;;17.63;1.73;;;;;;;;;;4890945;28;108363;-66
2022/01/06 06:17:15;;;;;;;12.30;1.90;;;;;;;;;;4890990;28;106683;-66
2022/01/06 06:19:42;;;;;;;17.38;1.90;;;;;;;;;;4891987;28;107492;-65
2022/01/06 06:22:10;;;;;;;26.35;2.55;;;;;;;;;;4890566;28;106482;-66
2022/01/06 06:24:36;;;;;;;20.67;1.65;;;;;;;;;;4879438;28;107130;-67
2022/01/06 06:27:05;;;;;;;14.85;1.77;;;;;;;;;;4890257;28;107492;-66
2022/01/06 06:29:31;;;;;;;22.00;2.10;;;;;;;;;;4894494;28;106292;-66
2022/01/06 06:31:57;;;;;;;13.10;1.90;;;;;;;;;;4881861;28;106416;-66
2022/01/06 06:34:24;;;;;;;16.75;2.38;;;;;;;;;;4890538;28;105891;-67
2022/01/06 06:36:50;;;;;;;15.65;2.33;;;;;;;;;;4888926;28;106890;-66
2022/01/06 06:39:17;;;;;;;15.30;2.10;;;;;;;;;;4888184;28;107652;-66
2022/01/06 06:41:43;;;;;;;18.88;2.40;;;;;;;;;;4887603;28;105863;-66
2022/01/06 06:44:09;;;;;;;18.75;1.80;;;;;;;;;;4887688;28;110013;-66
2022/01/06 06:46:36;;;;;;;19.08;1.88;;;;;;;;;;4885758;28;106612;-66
2022/01/06 06:49:02;;;;;;;11.40;2.00;;;;;;;;;;4891605;28;106321;-66
2022/01/06 06:51:29;;;;;;;9.73;1.77;;;;;;;;;;4891663;28;109089;-66
2022/01/06 06:53:55;;;;;;;14.27;1.70;;;;;;;;;;4891748;28;106337;-65
2022/01/06 06:56:21;;;;;;;16.42;2.00;;;;;;;;;;4888692;28;108428;-66
2022/01/06 06:58:48;;;;;;;17.23;2.25;;;;;;;;;;4890902;28;108951;-65
2022/01/06 07:01:14;;;;;;;26.63;2.40;;;;;;;;;;4883881;28;106270;-69
2022/01/06 07:03:41;;;;;;;22.27;2.17;;;;;;;;;;4890335;28;107380;-65
2022/01/06 07:06:07;;;;;;;11.30;2.20;;;;;;;;;;4888948;28;107762;-68
2022/01/06 07:08:33;;;;;;;23.65;2.38;;;;;;;;;;4891246;28;106421;-66
2022/01/06 07:11:00;;;;;;;22.27;2.72;;;;;;;;;;4873840;28;107052;-66
2022/01/06 07:13:26;;;;;;;14.18;2.30;;;;;;;;;;4891929;28;107504;-66
2022/01/06 07:15:53;;;;;;;14.60;2.20;;;;;;;;;;4889133;28;107032;-66
2022/01/06 07:18:20;;;;;;;16.58;2.78;;;;;;;;;;4889711;28;106413;-66
2022/01/06 07:20:46;;;;;;;11.15;2.20;;;;;;;;;;4889420;28;107658;-66
2022/01/06 07:23:13;;;;;;;13.35;2.40;;;;;;;;;;4890727;28;106571;-67
2022/01/06 07:25:40;;;;;;;11.77;2.22;;;;;;;;;;4890067;28;107951;-66
2022/01/06 07:28:06;;;;;;;7.35;1.60;;;;;;;;;;4889634;28;106652;-66
2022/01/06 07:30:33;;;;;;;15.60;2.58;;;;;;;;;;4888438;28;107178;-66
2022/01/06 07:33:00;;;;;;;13.75;2.00;;;;;;;;;;4881963;28;106874;-66
2022/01/06 07:35:26;;;;;;;9.27;2.38;;;;;;;;;;4891306;28;107844;-66
2022/01/06 07:37:53;;;;;;;11.77;2.30;;;;;;;;;;4889399;28;106454;-66
2022/01/06 07:40:20;;;;;;;20.45;2.60;;;;;;;;;;4886225;28;106007;-66
2022/01/06 07:42:47;;;;;;;12.80;2.08;;;;;;;;;;4890170;28;107277;-66
2022/01/06 07:45:14;;;;;;;14.13;2.78;;;;;;;;;;4889865;28;106586;-67
2022/01/06 07:47:55;;;;;;;13.13;2.45;;;;;;;;;;4890575;28;106240;-66
2022/01/06 07:50:23;;;;;;;10.07;1.80;;;;;;;;;;4887382;28;106451;-69
2022/01/06 07:52:49;;;;;;;7.60;1.98;;;;;;;;;;4889049;28;106700;-66
2022/01/06 07:55:15;;;;;;;12.63;2.03;;;;;;;;;;4902591;28;107512;-66
2022/01/06 07:57:42;;;;;;;14.48;2.55;;;;;;;;;;4882458;28;107405;-67
2022/01/06 08:00:08;;;;;;;19.98;2.53;;;;;;;;;;4888184;28;106062;-66
2022/01/06 08:02:37;;;;;;;13.40;2.50;;;;;;;;;;4889386;28;106343;-68
2022/01/06 08:05:04;;;;;;;16.23;2.33;;;;;;;;;;4889453;28;108067;-65
2022/01/06 08:07:30;;;;;;;13.18;2.00;;;;;;;;;;4889679;28;106517;-67
2022/01/06 08:09:57;;;;;;;13.85;2.42;;;;;;;;;;4889998;28;107241;-65
2022/01/06 08:12:23;;;;;;;14.48;2.90;;;;;;;;;;4889060;28;106804;-68
2022/01/06 08:14:49;;;;;;;29.77;3.85;;;;;;;;;;4888964;28;106342;-64
2022/01/06 08:17:16;;;;;;;21.48;2.95;;;;;;;;;;4893444;28;108406;-65
2022/01/06 08:19:43;;;;;;;19.80;3.22;;;;;;;;;;4886184;28;107412;-64
2022/01/06 08:22:10;;;;;;;23.38;3.30;;;;;;;;;;4878549;28;106394;-66
2022/01/06 08:24:36;;;;;;;17.23;2.33;;;;;;;;;;4888498;28;106461;-65
2022/01/06 08:27:08;;;;;;;28.52;3.30;;;;;;;;;;4889036;28;107491;-66
2022/01/06 08:29:38;;;;;;;14.40;2.70;;;;;;;;;;4890422;28;107272;-65
2022/01/06 08:32:05;;;;;;;17.10;2.40;;;;;;;;;;4893620;28;106233;-65
2022/01/06 08:34:31;;;;;;;16.92;3.17;;;;;;;;;;4879374;28;106227;-70
2022/01/06 08:36:58;;;;;;;11.23;2.38;;;;;;;;;;4886454;28;107070;-65
2022/01/06 08:39:25;;;;;;;12.93;2.55;;;;;;;;;;4894697;28;106994;-65
2022/01/06 08:41:52;;;;;;;12.98;2.75;;;;;;;;;;4892400;28;107740;-65
2022/01/06 08:44:18;;;;;;;15.80;3.00;;;;;;;;;;4888351;28;109391;-65
2022/01/06 08:46:45;;;;;;;19.13;3.08;;;;;;;;;;4887746;28;106015;-65
2022/01/06 08:49:13;;;;;;;12.82;2.60;;;;;;;;;;4886667;28;106453;-65
2022/01/06 08:51:39;;;;;;;18.38;2.92;;;;;;;;;;4891296;28;107606;-66
2022/01/06 08:54:06;;;;;;;12.45;2.10;;;;;;;;;;4893302;28;106486;-65
2022/01/06 08:56:33;;;;;;;18.05;2.97;;;;;;;;;;4889583;28;107967;-65
2022/01/06 08:59:00;;;;;;;23.50;3.15;;;;;;;;;;4887827;28;108560;-65
2022/01/06 09:01:26;;;;;;;13.93;2.70;;;;;;;;;;4893910;28;106474;-66
2022/01/06 09:03:53;;;;;;;13.32;2.92;;;;;;;;;;4891763;28;106867;-66
2022/01/06 09:06:20;;;;;;;17.98;3.33;;;;;;;;;;4891600;28;106500;-66
2022/01/06 09:08:47;;;;;;;18.40;3.20;;;;;;;;;;4891870;28;106867;-64
2022/01/06 09:11:14;;;;;;;22.88;3.10;;;;;;;;;;4890030;28;107598;-66
2022/01/06 09:13:41;;;;;;;11.98;2.63;;;;;;;;;;4891340;28;108140;-65
2022/01/06 09:16:08;;;;;;;16.65;2.88;;;;;;;;;;4888691;28;106946;-66
2022/01/06 09:18:36;;;;;;;17.60;3.22;;;;;;;;;;4890315;28;110286;-65
2022/01/06 09:21:03;;;;;;;16.52;3.15;;;;;;;;;;4886485;28;106471;-65
2022/01/06 09:23:29;;;;;;;14.13;2.35;;;;;;;;;;4890531;28;106837;-66
2022/01/06 09:25:56;;;;;;;12.35;2.47;;;;;;;;;;4893026;28;106367;-64
2022/01/06 09:28:22;;;;;;;14.82;2.50;;;;;;;;;;4886742;28;106302;-65
2022/01/06 09:30:51;;;;;;;18.25;4.47;;;;;;;;;;4887747;28;107094;-65
2022/01/06 09:33:18;;;;;;;13.82;3.10;;;;;;;;;;4884658;28;106386;-65
2022/01/06 09:35:45;;;;;;;14.45;2.63;;;;;;;;;;4890809;28;107557;-65
2022/01/06 09:38:12;;;;;;;19.95;3.20;;;;;;;;;;4891073;28;106889;-64
2022/01/06 09:40:42;;;;;;;15.07;2.70;;;;;;;;;;4886841;28;105982;-64
2022/01/06 09:43:12;;;;;;;20.15;3.20;;;;;;;;;;4885377;28;106291;-65
2022/01/06 09:45:39;;;;;;;11.82;3.28;;;;;;;;;;4894562;28;106822;-65
2022/01/06 09:48:06;;;;;;;14.82;3.92;;;;;;;;;;4892259;28;106325;-64
2022/01/06 09:50:32;;;;;;;12.18;3.33;;;;;;;;;;4891373;28;107134;-64
2022/01/06 09:52:59;;;;;;;11.55;2.80;;;;;;;;;;4885319;28;106771;-64
2022/01/06 09:55:25;;;;;;;13.43;2.90;;;;;;;;;;4880634;28;106915;-64
2022/01/06 09:57:59;;;;;;;9.57;3.00;;;;;;;;;;4891166;28;107672;-64
2022/01/06 10:00:26;;;;;;;14.95;3.00;;;;;;;;;;4884432;28;106131;-64
2022/01/06 10:02:54;;;;;;;15.98;3.63;;;;;;;;;;4891434;28;107471;-64
2022/01/06 10:05:21;;;;;;;20.40;5.47;;;;;;;;;;4893744;28;106255;-64
2022/01/06 10:07:47;;;;;;;16.77;4.13;;;;;;;;;;4891242;28;106507;-64
2022/01/06 10:10:14;;;;;;;16.00;3.53;;;;;;;;;;4891461;28;106520;-64
2022/01/06 10:12:42;;;;;;;13.35;2.78;;;;;;;;;;4890209;28;106449;-64
2022/01/06 10:15:28;;;;;;;14.75;3.13;;;;;;;;;;4892844;28;106401;-64
2022/01/06 10:17:55;;;;;;;10.63;2.50;;;;;;;;;;4888687;28;109945;-64
2022/01/06 10:20:25;;;;;;;14.18;2.45;;;;;;;;;;4877335;28;106293;-64
2022/01/06 10:22:54;;;;;;;23.27;3.22;;;;;;;;;;4888646;28;107169;-64
2022/01/06 10:25:21;;;;;;;14.23;2.83;;;;;;;;;;4887634;28;106427;-64
2022/01/06 10:27:49;;;;;;;14.85;2.53;;;;;;;;;;4895555;28;106528;-64
2022/01/06 10:30:15;;;;;;;10.60;2.03;;;;;;;;;;4889909;28;109722;-64
2022/01/06 10:32:42;;;;;;;13.55;2.50;;;;;;;;;;4891351;28;108094;-65
2022/01/06 10:35:09;;;;;;;12.15;1.95;;;;;;;;;;4890522;28;107282;-64
2022/01/06 10:37:41;;;;;;;12.40;2.70;;;;;;;;;;4887364;28;108136;-63
2022/01/06 10:40:08;;;;;;;8.60;2.20;;;;;;;;;;4889726;28;106774;-66
2022/01/06 10:42:37;;;;;;;12.45;2.30;;;;;;;;;;4888175;28;107117;-63
2022/01/06 10:45:11;;;;;;;10.82;2.55;;;;;;;;;;4890383;28;107731;-66
2022/01/06 10:47:39;;;;;;;15.70;2.88;;;;;;;;;;4890828;28;107356;-64
2022/01/06 10:50:11;;;;;;;12.23;2.42;;;;;;;;;;4893376;28;106236;-63
2022/01/06 10:52:39;;;;;;;12.65;2.35;;;;;;;;;;4890130;28;107510;-66
2022/01/06 10:55:12;;;;;;;10.93;2.40;;;;;;;;;;4891235;28;106430;-66
2022/01/06 10:57:51;;;;;;;11.73;2.78;;;;;;;;;;4884523;28;106772;-64
2022/01/06 11:00:18;;;;;;;;;;;;;;;;;;4889778;28;106246;-65
2022/01/06 11:02:44;;;;;;;15.48;3.17;;;;;;;;;;4889215;28;136266;-64
2022/01/06 11:05:11;;;;;;;14.60;2.38;;;;;;;;;;4887889;28;107370;-64
2022/01/06 11:07:37;;;;;;;14.57;2.70;;;;;;;;;;4889989;28;106386;-66
2022/01/06 11:10:13;;;;;;;11.90;2.50;;;;;;;;;;4886777;28;109277;-64
2022/01/06 11:12:39;;;;;;;13.25;3.13;;;;;;;;;;4892419;28;106537;-65
2022/01/06 11:15:06;;;;;;;16.30;2.60;;;;;;;;;;4889551;28;108025;-63
2022/01/06 11:17:33;;;;;;;12.93;2.30;;;;;;;;;;4890849;28;106869;-63
2022/01/06 11:20:00;;;;;;;9.90;2.72;;;;;;;;;;4890707;28;106113;-66
2022/01/06 11:22:26;;;;;;;12.52;2.90;;;;;;;;;;4890397;28;106437;-65
2022/01/06 11:24:54;;;;;;;12.90;3.40;;;;;;;;;;4890223;28;106580;-65
2022/01/06 11:27:34;;;;;;;11.55;3.05;;;;;;;;;;4888330;28;106150;-65
2022/01/06 11:30:11;;;;;;;16.90;3.30;;;;;;;;;;4888960;28;107495;-65
2022/01/06 11:32:37;;;;;;;23.10;3.05;;;;;;;;;;4888798;28;106376;-66
2022/01/06 11:35:07;;;;;;;23.20;3.50;;;;;;;;;;4892635;28;107526;-63
2022/01/06 11:37:33;;;;;;;;;;;;;;;;;;4889346;28;107414;-64
2022/01/06 11:40:01;;;;;;;13.10;3.80;;;;;;;;;;4884334;28;107498;-64
2022/01/06 11:42:28;;;;;;;10.37;2.97;;;;;;;;;;4888754;28;106232;-64
2022/01/06 11:44:55;;;;;;;11.90;3.08;;;;;;;;;;4888602;28;107297;-63
2022/01/06 11:47:31;;;;;;;12.05;3.58;;;;;;;;;;4889052;28;106480;-64
2022/01/06 11:50:24;;;;;;;15.70;3.17;;;;;;;;;;4883063;28;108517;-64
2022/01/06 11:52:55;;;;;;;13.35;3.33;;;;;;;;;;4889662;28;107401;-65
2022/01/06 11:55:22;;;;;;;17.70;4.40;;;;;;;;;;4890050;28;105740;-65
2022/01/06 11:57:49;;;;;;;18.67;5.18;;;;;;;;;;4887537;28;107435;-64
2022/01/06 12:00:25;;;;;;;17.40;2.40;;;;;;;;;;4890215;28;105909;-65
2022/01/06 12:03:11;;;;;;;14.88;2.60;;;;;;;;;;4882958;28;106936;-64
2022/01/06 12:05:44;;;;;;;21.52;3.58;;;;;;;;;;4888231;28;106444;-65
2022/01/06 12:08:11;;;;;;;15.38;2.42;;;;;;;;;;4887124;28;106285;-64
2022/01/06 12:10:38;;;;;;;11.55;2.60;;;;;;;;;;4887352;28;107634;-65
2022/01/06 12:13:04;;;;;;;12.35;2.30;;;;;;;;;;4887161;28;107342;-65
2022/01/06 12:15:31;;;;;;;9.63;2.28;;;;;;;;;;4885730;28;106491;-64
2022/01/06 12:17:59;;;;;;;10.45;1.90;;;;;;;;;;4903862;28;107035;-65
2022/01/06 12:20:26;;;;;;;16.15;2.53;;;;;;;;;;4887468;28;107740;-65
2022/01/06 12:22:53;;;;;;;11.90;1.83;;;;;;;;;;4890051;28;106358;-65
2022/01/06 12:25:24;;;;;;;15.55;1.63;;;;;;;;;;4882211;28;107618;-66
2022/01/06 12:27:52;;;;;;;14.18;2.03;;;;;;;;;;4886622;28;106035;-65
2022/01/06 12:30:20;;;;;;;11.70;1.73;;;;;;;;;;4888181;28;107906;-65
2022/01/06 12:33:00;;;;;;;13.18;2.33;;;;;;;;;;4878479;28;107876;-65
2022/01/06 12:35:43;;;;;;;16.67;3.05;;;;;;;;;;4888690;28;106004;-66
2022/01/06 12:38:11;;;;;;;19.45;2.88;;;;;;;;;;4889393;28;107279;-65
2022/01/06 12:40:39;;;;;;;14.52;2.22;;;;;;;;;;4891451;28;107462;-66
2022/01/06 12:43:17;;;;;;;16.58;2.75;;;;;;;;;;4886152;28;106884;-67
2022/01/06 12:45:44;;;;;;;13.73;2.20;;;;;;;;;;4885729;28;107386;-65
2022/01/06 12:48:11;;;;;;;18.77;2.50;;;;;;;;;;4889817;28;106722;-65
2022/01/06 12:50:55;;;;;;;25.70;3.80;;;;;;;;;;4885772;28;109330;-65
2022/01/06 12:53:32;;;;;;;12.32;1.92;;;;;;;;;;4886102;28;107585;-65
2022/01/06 12:55:59;;;;;;;17.77;2.35;;;;;;;;;;4901701;28;107744;-65
2022/01/06 12:58:30;;;;;;;15.02;2.60;;;;;;;;;;4886847;28;105804;-64
2022/01/06 13:00:59;;;;;;;12.88;1.75;;;;;;;;;;4888352;28;107801;-64
2022/01/06 13:03:26;;;;;;;14.65;2.40;;;;;;;;;;4891483;28;106005;-63
2022/01/06 13:05:53;;;;;;;19.63;2.22;;;;;;;;;;4890206;28;106637;-66
2022/01/06 13:08:20;;;;;;;10.52;2.28;;;;;;;;;;4888303;28;106507;-66
2022/01/06 13:10:46;;;;;;;13.02;1.67;;;;;;;;;;4886591;28;106758;-65
2022/01/06 13:13:13;;;;;;;6.20;1.65;;;;;;;;;;4888785;28;106911;-65
2022/01/06 13:15:39;;;;;;;8.68;1.95;;;;;;;;;;4892540;28;106065;-65
2022/01/06 13:18:06;;;;;;;10.93;2.03;;;;;;;;;;4891785;28;106836;-65
2022/01/06 13:20:37;;;;;;;11.80;1.98;;;;;;;;;;4891005;28;107319;-65
2022/01/06 13:23:41;;;;;;;15.68;1.67;;;;;;;;;;4892072;28;105980;-64
2022/01/06 13:26:07;;;;;;;7.35;1.48;;;;;;;;;;4890924;28;108394;-64
2022/01/06 13:28:34;;;;;;;8.35;1.60;;;;;;;;;;4886935;28;107057;-64
2022/01/06 13:31:00;;;;;;;12.35;1.50;;;;;;;;;;4886793;28;107306;-64
2022/01/06 13:33:29;;;;;;;11.40;1.98;;;;;;;;;;4887852;28;107435;-66
2022/01/06 13:35:56;;;;;;;13.18;1.60;;;;;;;;;;4890828;28;105948;-64
2022/01/06 13:38:25;;;;;;;10.43;1.50;;;;;;;;;;4888557;28;106458;-65
2022/01/06 13:40:58;;;;;;;10.18;1.90;;;;;;;;;;4887627;28;106725;-64
2022/01/06 13:43:25;;;;;;;13.90;1.90;;;;;;;;;;4889907;28;106777;-65
2022/01/06 13:45:52;;;;;;;8.05;1.48;;;;;;;;;;4887076;28;108363;-66
2022/01/06 13:51:04;;;;;;;11.13;2.05;;;;;;;;;;4883075;28;107243;-65
2022/01/06 13:53:37;;;;;;;10.95;1.85;;;;;;;;;;4881881;28;106444;-64
2022/01/06 13:56:07;;;;;;;9.07;2.50;;;;;;;;;;4884788;28;106771;-64
2022/01/06 13:58:34;;;;;;;9.07;1.95;;;;;;;;;;4897455;28;107061;-65
2022/01/06 14:01:02;;;;;;;9.02;1.50;;;;;;;;;;4882537;28;107632;-64
2022/01/06 14:03:31;;;;;;;13.07;1.75;;;;;;;;;;4885026;28;108246;-64
2022/01/06 14:05:59;;;;;;;10.85;1.80;;;;;;;;;;4881661;28;106848;-66
2022/01/06 14:08:25;;;;;;;14.30;2.47;;;;;;;;;;4886430;28;107675;-65
2022/01/06 14:10:52;;;;;;;15.65;2.30;;;;;;;;;;4884560;28;107556;-65
2022/01/06 14:13:18;;;;;;;16.17;2.00;;;;;;;;;;4883510;28;107346;-65
2022/01/06 14:15:45;;;;;;;8.73;1.95;;;;;;;;;;4885009;28;106080;-65
2022/01/06 14:18:13;;;;;;;9.85;2.05;;;;;;;;;;4891351;28;106340;-65
2022/01/06 14:20:39;;;;;;;7.00;1.80;;;;;;;;;;4875588;28;106959;-65
2022/01/06 14:23:05;;;;;;;16.17;2.75;;;;;;;;;;4888842;28;105669;-65
2022/01/06 14:25:32;;;;;;;15.15;2.10;;;;;;;;;;4890702;28;107004;-64
2022/01/06 14:27:59;;;;;;;9.75;2.03;;;;;;;;;;4888902;28;107218;-66
2022/01/06 14:30:25;;;;;;;17.38;4.05;;;;;;;;;;4899688;28;107332;-66